Foresthill, Pennsylvania
Current Conditions -  °F | °C
As of 3:53 AM on Sunday 23 Nov 2014 (Local Time) from KSEG Reporting Station
Overcast Overcast  
Wind Chill: 34°   Ceiling: 8000
Heat Index: 34°   Visibility: 10mi
Dew Point: 22°   Wind: 0mph
Humidity: 61%   Direction: NA
Pressure: 30.16"   Gusts: NA
Location:  40.9428°N, 77.0748°W
Report Text: KSEG 230853Z AUTO 00000KT 10SM BKN080 OVC110 01/M06 A3016 RMK AO2 SLP216 T00111056 50001
Loading
Personal Weather Stations






























Interactive Weather Map New forecast layout! Learn more

10-Day Weather Forecast

Advertisements
Track Severe Weather on mobile